sensor_id;sensor_type;location;lat;lon;timestamp;pressure;altitude;pressure_sealevel;temperature;humidity
53900;BME280;40509;32.858;-116.858;2023-05-24T00:00:02;97887.22;;;22.11;50.89
53900;BME280;40509;32.858;-116.858;2023-05-24T00:02:32;97883.47;;;22.13;50.74
53900;BME280;40509;32.858;-116.858;2023-05-24T00:04:59;97871.00;;;22.15;50.84
53900;BME280;40509;32.858;-116.858;2023-05-24T00:07:27;97871.28;;;22.12;50.79
53900;BME280;40509;32.858;-116.858;2023-05-24T00:09:54;97875.56;;;22.13;50.87
53900;BME280;40509;32.858;-116.858;2023-05-24T00:12:21;97874.94;;;22.11;50.61
53900;BME280;40509;32.858;-116.858;2023-05-24T00:14:49;97876.72;;;22.11;50.79
53900;BME280;40509;32.858;-116.858;2023-05-24T00:17:16;97876.06;;;22.09;50.90
53900;BME280;40509;32.858;-116.858;2023-05-24T00:19:43;97869.66;;;22.11;50.64
53900;BME280;40509;32.858;-116.858;2023-05-24T00:22:11;97872.94;;;22.13;50.82
53900;BME280;40509;32.858;-116.858;2023-05-24T00:24:40;97864.41;;;22.11;50.89
53900;BME280;40509;32.858;-116.858;2023-05-24T00:27:07;97866.88;;;22.13;50.76
53900;BME280;40509;32.858;-116.858;2023-05-24T00:29:34;97863.72;;;22.09;50.78
53900;BME280;40509;32.858;-116.858;2023-05-24T00:32:01;97867.69;;;22.13;50.73
53900;BME280;40509;32.858;-116.858;2023-05-24T00:34:29;97866.19;;;22.11;51.08
53900;BME280;40509;32.858;-116.858;2023-05-24T00:36:57;97860.94;;;22.11;50.70
53900;BME280;40509;32.858;-116.858;2023-05-24T00:39:26;97860.94;;;22.11;50.95
53900;BME280;40509;32.858;-116.858;2023-05-24T00:41:53;97858.31;;;22.11;50.75
53900;BME280;40509;32.858;-116.858;2023-05-24T00:44:21;97857.81;;;22.07;50.90
53900;BME280;40509;32.858;-116.858;2023-05-24T00:46:49;97854.72;;;22.12;50.86
53900;BME280;40509;32.858;-116.858;2023-05-24T00:49:16;97847.97;;;22.09;50.62
53900;BME280;40509;32.858;-116.858;2023-05-24T00:51:45;97845.31;;;22.09;51.10
53900;BME280;40509;32.858;-116.858;2023-05-24T00:54:12;97845.31;;;22.09;50.92
53900;BME280;40509;32.858;-116.858;2023-05-24T00:56:41;97842.69;;;22.09;51.05
53900;BME280;40509;32.858;-116.858;2023-05-24T00:59:08;97846.47;;;22.06;50.90
53900;BME280;40509;32.858;-116.858;2023-05-24T01:01:38;97837.75;;;22.06;51.04
53900;BME280;40509;32.858;-116.858;2023-05-24T01:04:07;97844.50;;;22.09;50.91
53900;BME280;40509;32.858;-116.858;2023-05-24T01:06:56;97839.25;;;22.09;51.02
53900;BME280;40509;32.858;-116.858;2023-05-24T01:17:43;97829.72;;;22.08;50.78
53900;BME280;40509;32.858;-116.858;2023-05-24T01:20:16;97830.88;;;22.13;50.59
53900;BME280;40509;32.858;-116.858;2023-05-24T01:23:59;97827.09;;;22.08;51.02
53900;BME280;40509;32.858;-116.858;2023-05-24T01:28:32;97825.94;;;22.10;50.69
53900;BME280;40509;32.858;-116.858;2023-05-24T01:31:01;97824.81;;;22.13;50.67
53900;BME280;40509;32.858;-116.858;2023-05-24T01:33:30;97823.66;;;22.07;50.99
53900;BME280;40509;32.858;-116.858;2023-05-24T01:35:58;97826.97;;;22.17;50.90
53900;BME280;40509;32.858;-116.858;2023-05-24T01:38:25;97825.34;;;22.24;50.33
53900;BME280;40509;32.858;-116.858;2023-05-24T01:41:00;97822.66;;;22.08;51.06
53900;BME280;40509;32.858;-116.858;2023-05-24T01:43:42;97824.63;;;22.06;51.05
53900;BME280;40509;32.858;-116.858;2023-05-24T01:46:28;97827.91;;;22.08;50.93
53900;BME280;40509;32.858;-116.858;2023-05-24T01:51:33;97825.44;;;22.06;51.03
53900;BME280;40509;32.858;-116.858;2023-05-24T01:54:05;97827.91;;;22.08;50.93
53900;BME280;40509;32.858;-116.858;2023-05-24T01:56:33;97822.97;;;22.05;50.79
53900;BME280;40509;32.858;-116.858;2023-05-24T01:59:01;97826.56;;;22.04;51.06
53900;BME280;40509;32.858;-116.858;2023-05-24T02:01:30;97824.91;;;22.03;51.16
53900;BME280;40509;32.858;-116.858;2023-05-24T02:03:58;97823.28;;;22.02;50.82
53900;BME280;40509;32.858;-116.858;2023-05-24T02:06:25;97813.75;;;22.01;50.97
53900;BME280;40509;32.858;-116.858;2023-05-24T02:08:53;97819.66;;;22.03;51.15
53900;BME280;40509;32.858;-116.858;2023-05-24T02:11:21;97814.56;;;22.01;50.93
53900;BME280;40509;32.858;-116.858;2023-05-24T02:13:48;97818.84;;;22.02;50.92
53900;BME280;40509;32.858;-116.858;2023-05-24T02:16:15;97821.31;;;22.04;50.81
53900;BME280;40509;32.858;-116.858;2023-05-24T02:18:43;97822.59;;;22.00;51.05
53900;BME280;40509;32.858;-116.858;2023-05-24T02:21:13;97826.88;;;22.01;50.82
53900;BME280;40509;32.858;-116.858;2023-05-24T02:23:41;97819.16;;;21.99;50.94
53900;BME280;40509;32.858;-116.858;2023-05-24T02:26:09;97823.56;;;21.99;51.13
53900;BME280;40509;32.858;-116.858;2023-05-24T02:28:38;97823.28;;;22.02;50.80
53900;BME280;40509;32.858;-116.858;2023-05-24T02:31:05;97824.75;;;21.96;51.28
53900;BME280;40509;32.858;-116.858;2023-05-24T02:33:34;97826.72;;;22.02;51.19
53900;BME280;40509;32.858;-116.858;2023-05-24T02:36:01;97831.53;;;22.07;50.96
53900;BME280;40509;32.858;-116.858;2023-05-24T02:38:29;97826.88;;;22.01;50.69
53900;BME280;40509;32.858;-116.858;2023-05-24T02:40:57;97830.03;;;22.04;50.92
53900;BME280;40509;32.858;-116.858;2023-05-24T02:43:25;97838.25;;;22.10;50.89
53900;BME280;40509;32.858;-116.858;2023-05-24T02:45:52;97838.75;;;22.05;51.13
53900;BME280;40509;32.858;-116.858;2023-05-24T02:48:19;97836.91;;;22.05;50.74
53900;BME280;40509;32.858;-116.858;2023-05-24T02:50:47;97842.03;;;22.07;50.90
53900;BME280;40509;32.858;-116.858;2023-05-24T02:53:14;97841.22;;;22.06;50.93
53900;BME280;40509;32.858;-116.858;2023-05-24T02:55:41;97842.03;;;22.07;50.87
53900;BME280;40509;32.858;-116.858;2023-05-24T02:58:10;97834.94;;;21.99;51.15
53900;BME280;40509;32.858;-116.858;2023-05-24T03:00:39;97843.47;;;22.01;50.86
53900;BME280;40509;32.858;-116.858;2023-05-24T03:03:06;97844.31;;;22.02;51.13
53900;BME280;40509;32.858;-116.858;2023-05-24T03:05:33;97846.41;;;21.98;51.20
53900;BME280;40509;32.858;-116.858;2023-05-24T03:08:00;97841.00;;;22.00;51.21
53900;BME280;40509;32.858;-116.858;2023-05-24T03:10:27;97842.03;;;22.07;50.90
53900;BME280;40509;32.858;-116.858;2023-05-24T03:12:55;97844.31;;;22.02;51.35
53900;BME280;40509;32.858;-116.858;2023-05-24T03:15:23;97846.63;;;22.05;51.20
53900;BME280;40509;32.858;-116.858;2023-05-24T03:17:52;97850.06;;;22.05;51.31
53900;BME280;40509;32.858;-116.858;2023-05-24T03:20:19;97850.53;;;22.01;51.17
53900;BME280;40509;32.858;-116.858;2023-05-24T03:22:49;97847.22;;;21.99;51.99
53900;BME280;40509;32.858;-116.858;2023-05-24T03:25:16;97844.59;;;21.99;51.63
53900;BME280;40509;32.858;-116.858;2023-05-24T03:27:44;97852.19;;;22.02;52.17
53900;BME280;40509;32.858;-116.858;2023-05-24T03:30:12;97843.19;;;22.04;51.67
53900;BME280;40509;32.858;-116.858;2023-05-24T03:32:49;97847.91;;;22.01;52.35
53900;BME280;40509;32.858;-116.858;2023-05-24T03:35:16;97845.31;;;22.09;52.62
53900;BME280;40509;32.858;-116.858;2023-05-24T03:37:43;97847.31;;;22.07;52.92
53900;BME280;40509;32.858;-116.858;2023-05-24T03:40:11;97850.38;;;22.02;53.28
53900;BME280;40509;32.858;-116.858;2023-05-24T03:42:49;97858.31;;;22.11;53.70
53900;BME280;40509;32.858;-116.858;2023-05-24T03:45:18;97858.09;;;22.04;53.81
53900;BME280;40509;32.858;-116.858;2023-05-24T03:47:45;97867.72;;;22.21;53.48
53900;BME280;40509;32.858;-116.858;2023-05-24T03:50:12;97864.13;;;22.22;54.39
53900;BME280;40509;32.858;-116.858;2023-05-24T03:52:41;97857.91;;;22.23;54.61
53900;BME280;40509;32.858;-116.858;2023-05-24T03:55:08;97856.72;;;22.18;54.34
53900;BME280;40509;32.858;-116.858;2023-05-24T03:57:35;97853.41;;;22.16;54.64
53900;BME280;40509;32.858;-116.858;2023-05-24T04:00:03;97858.00;;;22.14;54.95
53900;BME280;40509;32.858;-116.858;2023-05-24T04:02:40;97863.41;;;22.12;54.80
53900;BME280;40509;32.858;-116.858;2023-05-24T04:05:07;97864.75;;;22.16;54.57
53900;BME280;40509;32.858;-116.858;2023-05-24T04:07:39;97878.72;;;22.17;54.77
53900;BME280;40509;32.858;-116.858;2023-05-24T04:10:08;97876.56;;;22.12;54.89
53900;BME280;40509;32.858;-116.858;2023-05-24T04:12:35;97877.88;;;22.16;55.00
53900;BME280;40509;32.858;-116.858;2023-05-24T04:15:06;97877.41;;;22.13;54.87
53900;BME280;40509;32.858;-116.858;2023-05-24T04:17:34;97876.56;;;22.12;54.94
53900;BME280;40509;32.858;-116.858;2023-05-24T04:20:02;97881.53;;;22.15;54.44
53900;BME280;40509;32.858;-116.858;2023-05-24T04:22:32;97881.72;;;22.22;54.34
53900;BME280;40509;32.858;-116.858;2023-05-24T04:25:04;97884.19;;;22.23;54.06
53900;BME280;40509;32.858;-116.858;2023-05-24T04:27:32;97884.16;;;22.15;54.49
53900;BME280;40509;32.858;-116.858;2023-05-24T04:30:02;97884.00;;;22.17;54.33
53900;BME280;40509;32.858;-116.858;2023-05-24T04:32:29;97883.31;;;22.15;54.77
53900;BME280;40509;32.858;-116.858;2023-05-24T04:34:57;97887.75;;;22.14;54.58
53900;BME280;40509;32.858;-116.858;2023-05-24T04:37:25;97887.06;;;22.12;54.54
53900;BME280;40509;32.858;-116.858;2023-05-24T04:39:53;97889.22;;;22.09;54.56
53900;BME280;40509;32.858;-116.858;2023-05-24T04:42:20;97891.84;;;22.09;54.65
53900;BME280;40509;32.858;-116.858;2023-05-24T04:44:47;97889.03;;;22.10;54.32
53900;BME280;40509;32.858;-116.858;2023-05-24T04:47:14;97889.69;;;22.12;54.39
53900;BME280;40509;32.858;-116.858;2023-05-24T04:49:43;97896.25;;;22.08;54.52
53900;BME280;40509;32.858;-116.858;2023-05-24T04:52:10;97894.94;;;22.12;54.27
53900;BME280;40509;32.858;-116.858;2023-05-24T04:54:37;97895.13;;;22.11;54.29
53900;BME280;40509;32.858;-116.858;2023-05-24T04:57:05;97893.47;;;22.10;54.35
53900;BME280;40509;32.858;-116.858;2023-05-24T04:59:32;97897.94;;;22.17;54.43
53900;BME280;40509;32.858;-116.858;2023-05-24T05:01:59;97895.69;;;22.22;54.44
53900;BME280;40509;32.858;-116.858;2023-05-24T05:04:27;97896.25;;;22.08;54.42
53900;BME280;40509;32.858;-116.858;2023-05-24T05:06:54;97888.41;;;22.16;54.03
53900;BME280;40509;32.858;-116.858;2023-05-24T05:09:21;97888.19;;;22.10;54.36
53900;BME280;40509;32.858;-116.858;2023-05-24T05:11:50;97887.72;;;22.06;54.31
53900;BME280;40509;32.858;-116.858;2023-05-24T05:14:17;97889.66;;;22.04;54.18
53900;BME280;40509;32.858;-116.858;2023-05-24T05:16:44;97889.66;;;22.04;54.37
53900;BME280;40509;32.858;-116.858;2023-05-24T05:19:11;97882.66;;;22.13;54.13
53900;BME280;40509;32.858;-116.858;2023-05-24T05:21:39;97879.50;;;22.09;54.09
53900;BME280;40509;32.858;-116.858;2023-05-24T05:24:07;97885.72;;;22.08;54.14
53900;BME280;40509;32.858;-116.858;2023-05-24T05:26:34;97875.22;;;22.08;54.27
53900;BME280;40509;32.858;-116.858;2023-05-24T05:29:02;97888.31;;;22.00;54.02
53900;BME280;40509;32.858;-116.858;2023-05-24T05:31:30;97875.69;;;22.03;54.32
53900;BME280;40509;32.858;-116.858;2023-05-24T05:33:57;97877.81;;;22.00;54.05
53900;BME280;40509;32.858;-116.858;2023-05-24T05:36:24;97874.84;;;22.03;54.18
53900;BME280;40509;32.858;-116.858;2023-05-24T05:38:51;97886.22;;;22.03;54.22
53900;BME280;40509;32.858;-116.858;2023-05-24T05:41:20;97883.59;;;22.03;54.15
53900;BME280;40509;32.858;-116.858;2023-05-24T05:43:47;97885.03;;;21.98;54.24
53900;BME280;40509;32.858;-116.858;2023-05-24T05:46:15;97878.13;;;21.97;54.09
53900;BME280;40509;32.858;-116.858;2023-05-24T05:48:42;97876.16;;;21.99;53.94
53900;BME280;40509;32.858;-116.858;2023-05-24T05:51:09;97878.66;;;22.00;53.88
53900;BME280;40509;32.858;-116.858;2023-05-24T05:53:36;97881.41;;;21.99;54.04
53900;BME280;40509;32.858;-116.858;2023-05-24T05:56:03;97876.81;;;22.01;53.76
53900;BME280;40509;32.858;-116.858;2023-05-24T05:58:30;97879.78;;;21.98;53.82
53900;BME280;40509;32.858;-116.858;2023-05-24T06:00:58;97883.38;;;21.97;54.03
53900;BME280;40509;32.858;-116.858;2023-05-24T06:03:25;97873.06;;;22.03;53.70
53900;BME280;40509;32.858;-116.858;2023-05-24T06:05:52;97879.47;;;22.01;53.70
53900;BME280;40509;32.858;-116.858;2023-05-24T06:08:19;97885.03;;;21.98;53.67
53900;BME280;40509;32.858;-116.858;2023-05-24T06:10:47;97883.75;;;22.02;53.64
53900;BME280;40509;32.858;-116.858;2023-05-24T06:13:15;97880.22;;;22.19;53.11
53900;BME280;40509;32.858;-116.858;2023-05-24T06:15:42;97882.25;;;21.99;53.57
53900;BME280;40509;32.858;-116.858;2023-05-24T06:18:09;97887.50;;;21.99;53.59
53900;BME280;40509;32.858;-116.858;2023-05-24T06:20:37;97893.38;;;21.93;53.78
53900;BME280;40509;32.858;-116.858;2023-05-24T06:23:04;97889.75;;;21.94;53.58
53900;BME280;40509;32.858;-116.858;2023-05-24T06:25:31;97890.56;;;21.95;53.71
53900;BME280;40509;32.858;-116.858;2023-05-24T06:27:59;97883.97;;;21.90;53.64
53900;BME280;40509;32.858;-116.858;2023-05-24T06:30:26;97888.59;;;21.88;53.64
53900;BME280;40509;32.858;-116.858;2023-05-24T06:32:53;97890.09;;;21.91;53.72
53900;BME280;40509;32.858;-116.858;2023-05-24T06:35:21;97885.84;;;21.98;53.50
53900;BME280;40509;32.858;-116.858;2023-05-24T06:37:48;97876.47;;;21.96;53.55
53900;BME280;40509;32.858;-116.858;2023-05-24T06:40:16;97874.69;;;21.96;53.35
53900;BME280;40509;32.858;-116.858;2023-05-24T06:42:43;97876.78;;;21.93;53.55
53900;BME280;40509;32.858;-116.858;2023-05-24T06:45:11;97876.94;;;21.91;53.69
53900;BME280;40509;32.858;-116.858;2023-05-24T06:47:38;97880.59;;;21.98;53.44
53900;BME280;40509;32.858;-116.858;2023-05-24T06:50:06;97875.66;;;21.95;53.19
53900;BME280;40509;32.858;-116.858;2023-05-24T06:52:34;97873.69;;;21.97;53.40
53900;BME280;40509;32.858;-116.858;2023-05-24T06:55:01;97875.81;;;21.94;53.36
53900;BME280;40509;32.858;-116.858;2023-05-24T06:57:28;97869.59;;;22.03;53.03
53900;BME280;40509;32.858;-116.858;2023-05-24T06:59:56;97867.59;;;21.97;53.05
53900;BME280;40509;32.858;-116.858;2023-05-24T07:02:23;97866.28;;;21.93;53.43
53900;BME280;40509;32.858;-116.858;2023-05-24T07:04:53;97856.06;;;21.89;53.66
53900;BME280;40509;32.858;-116.858;2023-05-24T07:07:20;97862.16;;;21.90;53.47
53900;BME280;40509;32.858;-116.858;2023-05-24T07:09:47;97865.75;;;21.89;53.52
53900;BME280;40509;32.858;-116.858;2023-05-24T07:12:15;97866.28;;;21.93;53.36
53900;BME280;40509;32.858;-116.858;2023-05-24T07:14:42;97859.34;;;21.92;53.25
53900;BME280;40509;32.858;-116.858;2023-05-24T07:17:09;97852.44;;;21.90;53.52
53900;BME280;40509;32.858;-116.858;2023-05-24T07:19:37;97856.06;;;21.89;53.13
53900;BME280;40509;32.858;-116.858;2023-05-24T07:22:04;97852.59;;;21.89;53.30
53900;BME280;40509;32.858;-116.858;2023-05-24T07:24:31;97847.34;;;21.89;53.13
53900;BME280;40509;32.858;-116.858;2023-05-24T07:26:58;97852.75;;;21.87;53.17
53900;BME280;40509;32.858;-116.858;2023-05-24T07:29:26;97853.09;;;21.84;53.06
53900;BME280;40509;32.858;-116.858;2023-05-24T07:31:53;97846.84;;;21.85;53.25
53900;BME280;40509;32.858;-116.858;2023-05-24T07:34:22;97846.69;;;21.87;53.10
53900;BME280;40509;32.858;-116.858;2023-05-24T07:36:52;97848.31;;;21.88;52.96
53900;BME280;40509;32.858;-116.858;2023-05-24T07:39:19;97840.91;;;21.83;52.93
53900;BME280;40509;32.858;-116.858;2023-05-24T07:41:47;97846.16;;;21.83;52.69
53900;BME280;40509;32.858;-116.858;2023-05-24T07:44:14;97842.94;;;21.89;53.06
53900;BME280;40509;32.858;-116.858;2023-05-24T07:46:41;97836.78;;;21.81;52.76
53900;BME280;40509;32.858;-116.858;2023-05-24T07:49:08;97848.28;;;21.80;53.08
53900;BME280;40509;32.858;-116.858;2023-05-24T07:51:36;97846.50;;;21.80;53.04
53900;BME280;40509;32.858;-116.858;2023-05-24T07:54:04;97848.16;;;21.81;52.75
53900;BME280;40509;32.858;-116.858;2023-05-24T07:56:31;97842.22;;;21.79;52.96
53900;BME280;40509;32.858;-116.858;2023-05-24T07:58:58;97849.78;;;21.82;52.67
53900;BME280;40509;32.858;-116.858;2023-05-24T08:01:33;97854.53;;;21.79;52.97
53900;BME280;40509;32.858;-116.858;2023-05-24T08:04:02;97847.94;;;21.75;52.87
53900;BME280;40509;32.858;-116.858;2023-05-24T08:06:30;97850.69;;;21.73;52.88
53900;BME280;40509;32.858;-116.858;2023-05-24T08:08:58;97847.78;;;21.76;52.69
53900;BME280;40509;32.858;-116.858;2023-05-24T08:11:25;97847.78;;;21.76;52.92
53900;BME280;40509;32.858;-116.858;2023-05-24T08:13:53;97840.72;;;21.77;52.71
53900;BME280;40509;32.858;-116.858;2023-05-24T08:16:20;97838.09;;;21.77;52.54
53900;BME280;40509;32.858;-116.858;2023-05-24T08:18:47;97832.19;;;21.75;52.80
53900;BME280;40509;32.858;-116.858;2023-05-24T08:21:14;97835.63;;;21.75;52.74
53900;BME280;40509;32.858;-116.858;2023-05-24T08:23:42;97839.22;;;21.74;52.72
53900;BME280;40509;32.858;-116.858;2023-05-24T08:26:09;97835.94;;;21.72;52.58
53900;BME280;40509;32.858;-116.858;2023-05-24T08:28:36;97836.59;;;21.74;52.52
53900;BME280;40509;32.858;-116.858;2023-05-24T08:31:03;97826.41;;;21.71;52.90
53900;BME280;40509;32.858;-116.858;2023-05-24T08:33:31;97828.06;;;21.72;52.41
53900;BME280;40509;32.858;-116.858;2023-05-24T08:35:58;97818.03;;;21.76;52.35
53900;BME280;40509;32.858;-116.858;2023-05-24T08:38:25;97824.75;;;21.70;52.56
53900;BME280;40509;32.858;-116.858;2023-05-24T08:40:53;97821.66;;;21.75;52.52
53900;BME280;40509;32.858;-116.858;2023-05-24T08:43:20;97821.94;;;21.71;52.56
53900;BME280;40509;32.858;-116.858;2023-05-24T08:45:49;97813.63;;;21.76;52.40
53900;BME280;40509;32.858;-116.858;2023-05-24T08:48:18;97807.53;;;21.76;52.37
53900;BME280;40509;32.858;-116.858;2023-05-24T08:50:46;97811.00;;;21.76;52.21
53900;BME280;40509;32.858;-116.858;2023-05-24T08:53:14;97811.28;;;21.73;52.30
53900;BME280;40509;32.858;-116.858;2023-05-24T08:55:42;97803.06;;;21.68;52.48
53900;BME280;40509;32.858;-116.858;2023-05-24T08:58:10;97812.72;;;21.67;52.29
53900;BME280;40509;32.858;-116.858;2023-05-24T09:00:37;97810.94;;;21.68;52.58
53900;BME280;40509;32.858;-116.858;2023-05-24T09:03:05;97804.03;;;21.67;52.29
53900;BME280;40509;32.858;-116.858;2023-05-24T09:05:32;97808.97;;;21.70;52.21
53900;BME280;40509;32.858;-116.858;2023-05-24T09:08:00;97806.97;;;21.64;52.51
53900;BME280;40509;32.858;-116.858;2023-05-24T09:10:31;97805.31;;;21.63;52.36
53900;BME280;40509;32.858;-116.858;2023-05-24T09:13:01;97807.97;;;21.63;52.43
53900;BME280;40509;32.858;-116.858;2023-05-24T09:15:28;97811.75;;;21.68;52.09
53900;BME280;40509;32.858;-116.858;2023-05-24T09:17:56;97809.44;;;21.65;52.16
53900;BME280;40509;32.858;-116.858;2023-05-24T09:20:23;97812.88;;;21.66;52.20
53900;BME280;40509;32.858;-116.858;2023-05-24T09:22:51;97816.50;;;21.65;52.24
53900;BME280;40509;32.858;-116.858;2023-05-24T09:25:19;97817.19;;;21.67;52.13
53900;BME280;40509;32.858;-116.858;2023-05-24T09:27:51;97818.81;;;21.68;51.94
53900;BME280;40509;32.858;-116.858;2023-05-24T09:30:19;97820.13;;;21.64;52.11
53900;BME280;40509;32.858;-116.858;2023-05-24T09:32:55;97809.63;;;21.64;52.00
53900;BME280;40509;32.858;-116.858;2023-05-24T09:35:23;97817.50;;;21.64;52.05
53900;BME280;40509;32.858;-116.858;2023-05-24T09:37:56;97823.41;;;21.66;52.09
53900;BME280;40509;32.858;-116.858;2023-05-24T09:40:23;97830.63;;;21.64;51.99
53900;BME280;40509;32.858;-116.858;2023-05-24T09:43:04;97828.00;;;21.64;51.99
53900;BME280;40509;32.858;-116.858;2023-05-24T09:45:41;97831.75;;;21.61;52.05
53900;BME280;40509;32.858;-116.858;2023-05-24T09:48:13;97834.81;;;21.56;52.21
53900;BME280;40509;32.858;-116.858;2023-05-24T09:50:41;97831.59;;;21.63;51.81
53900;BME280;40509;32.858;-116.858;2023-05-24T09:53:08;97828.81;;;21.64;51.97
53900;BME280;40509;32.858;-116.858;2023-05-24T09:55:36;97835.50;;;21.59;51.99
53900;BME280;40509;32.858;-116.858;2023-05-24T09:58:05;97835.03;;;21.63;51.63
53900;BME280;40509;32.858;-116.858;2023-05-24T10:00:38;97836.31;;;21.59;52.01
53900;BME280;40509;32.858;-116.858;2023-05-24T10:03:08;97840.75;;;21.59;51.84
53900;BME280;40509;32.858;-116.858;2023-05-24T10:05:44;97840.06;;;21.56;52.02
53900;BME280;40509;32.858;-116.858;2023-05-24T10:08:12;97838.59;;;21.54;52.10
53900;BME280;40509;32.858;-116.858;2023-05-24T10:10:41;97836.97;;;21.53;51.95
53900;BME280;40509;32.858;-116.858;2023-05-24T10:13:09;97836.63;;;21.56;51.81
53900;BME280;40509;32.858;-116.858;2023-05-24T10:15:37;97835.94;;;21.54;51.88
53900;BME280;40509;32.858;-116.858;2023-05-24T10:18:04;97835.66;;;21.57;51.74
53900;BME280;40509;32.858;-116.858;2023-05-24T10:20:33;97839.41;;;21.54;52.04
53900;BME280;40509;32.858;-116.858;2023-05-24T10:23:03;97837.44;;;21.56;51.92
53900;BME280;40509;32.858;-116.858;2023-05-24T10:25:34;97841.88;;;21.56;51.54
53900;BME280;40509;32.858;-116.858;2023-05-24T10:28:09;97850.09;;;21.53;51.77
53900;BME280;40509;32.858;-116.858;2023-05-24T10:33:17;97843.03;;;21.53;51.68
53900;BME280;40509;32.858;-116.858;2023-05-24T10:35:45;97845.09;;;21.50;51.77
53900;BME280;40509;32.858;-116.858;2023-05-24T10:38:13;97835.59;;;21.49;51.93
53900;BME280;40509;32.858;-116.858;2023-05-24T10:40:41;97830.00;;;21.52;52.11
53900;BME280;40509;32.858;-116.858;2023-05-24T10:43:09;97831.31;;;21.48;52.01
53900;BME280;40509;32.858;-116.858;2023-05-24T10:45:39;97839.63;;;21.43;52.02
53900;BME280;40509;32.858;-116.858;2023-05-24T10:50:42;97834.75;;;21.48;51.99
53900;BME280;40509;32.858;-116.858;2023-05-24T10:53:23;97833.75;;;21.49;51.46
53900;BME280;40509;32.858;-116.858;2023-05-24T10:56:02;97832.09;;;21.48;51.43
53900;BME280;40509;32.858;-116.858;2023-05-24T10:58:58;97828.34;;;21.51;51.55
53900;BME280;40509;32.858;-116.858;2023-05-24T11:01:32;97831.63;;;21.45;51.74
53900;BME280;40509;32.858;-116.858;2023-05-24T11:04:15;97827.19;;;21.45;51.94
53900;BME280;40509;32.858;-116.858;2023-05-24T11:07:02;97834.38;;;21.43;51.90
53900;BME280;40509;32.858;-116.858;2023-05-24T11:09:31;97821.91;;;21.45;51.66
53900;BME280;40509;32.858;-116.858;2023-05-24T11:12:06;97824.69;;;21.44;51.69
53900;BME280;40509;32.858;-116.858;2023-05-24T11:14:37;97825.84;;;21.41;51.49
53900;BME280;40509;32.858;-116.858;2023-05-24T11:17:08;97823.56;;;21.46;51.69
53900;BME280;40509;32.858;-116.858;2023-05-24T11:19:38;97814.34;;;21.42;51.67
53900;BME280;40509;32.858;-116.858;2023-05-24T11:22:12;97810.44;;;21.46;51.37
53900;BME280;40509;32.858;-116.858;2023-05-24T11:24:44;97818.59;;;21.43;51.29
53900;BME280;40509;32.858;-116.858;2023-05-24T11:27:12;97815.66;;;21.38;51.78
53900;BME280;40509;32.858;-116.858;2023-05-24T11:29:44;97808.78;;;21.45;51.62
53900;BME280;40509;32.858;-116.858;2023-05-24T11:32:16;97809.56;;;21.37;51.60
53900;BME280;40509;32.858;-116.858;2023-05-24T11:34:47;97816.09;;;21.33;51.65
53900;BME280;40509;32.858;-116.858;2023-05-24T11:37:15;97809.06;;;21.34;51.64
53900;BME280;40509;32.858;-116.858;2023-05-24T11:39:42;97811.50;;;21.35;51.62
53900;BME280;40509;32.858;-116.858;2023-05-24T11:42:10;97807.38;;;21.33;51.81
53900;BME280;40509;32.858;-116.858;2023-05-24T11:44:37;97811.66;;;21.34;51.75
53900;BME280;40509;32.858;-116.858;2023-05-24T11:47:06;97813.28;;;21.35;51.66
53900;BME280;40509;32.858;-116.858;2023-05-24T11:49:34;97812.50;;;21.34;51.54
53900;BME280;40509;32.858;-116.858;2023-05-24T11:52:02;97816.25;;;21.32;51.59
53900;BME280;40509;32.858;-116.858;2023-05-24T11:54:30;97814.44;;;21.32;51.54
53900;BME280;40509;32.858;-116.858;2023-05-24T11:57:04;97821.19;;;21.35;51.73
53900;BME280;40509;32.858;-116.858;2023-05-24T11:59:31;97813.28;;;21.35;51.49
53900;BME280;40509;32.858;-116.858;2023-05-24T12:02:00;97822.19;;;21.34;51.55
53900;BME280;40509;32.858;-116.858;2023-05-24T12:04:28;97811.66;;;21.34;51.67
53900;BME280;40509;32.858;-116.858;2023-05-24T12:06:56;97815.28;;;21.33;51.48
53900;BME280;40509;32.858;-116.858;2023-05-24T12:09:24;97810.19;;;21.31;51.47
53900;BME280;40509;32.858;-116.858;2023-05-24T12:11:52;97823.47;;;21.30;51.55
53900;BME280;40509;32.858;-116.858;2023-05-24T12:14:24;97825.09;;;21.31;51.57
53900;BME280;40509;32.858;-116.858;2023-05-24T12:16:54;97828.72;;;21.30;51.48
53900;BME280;40509;32.858;-116.858;2023-05-24T12:19:24;97828.72;;;21.30;51.52
53900;BME280;40509;32.858;-116.858;2023-05-24T12:21:58;97826.09;;;21.30;51.57
53900;BME280;40509;32.858;-116.858;2023-05-24T12:24:26;97833.59;;;21.25;51.52
53900;BME280;40509;32.858;-116.858;2023-05-24T12:27:00;97830.81;;;21.26;51.61
53900;BME280;40509;32.858;-116.858;2023-05-24T12:29:33;97841.47;;;21.25;51.66
53900;BME280;40509;32.858;-116.858;2023-05-24T12:32:01;97840.34;;;21.27;51.30
53900;BME280;40509;32.858;-116.858;2023-05-24T12:34:28;97843.13;;;21.26;51.44
53900;BME280;40509;32.858;-116.858;2023-05-24T12:36:56;97847.84;;;21.22;51.47
53900;BME280;40509;32.858;-116.858;2023-05-24T12:39:25;97851.28;;;21.22;51.50
53900;BME280;40509;32.858;-116.858;2023-05-24T12:42:01;97845.00;;;21.15;51.61
53900;BME280;40509;32.858;-116.858;2023-05-24T12:44:38;97849.78;;;21.20;51.30
53900;BME280;40509;32.858;-116.858;2023-05-24T12:47:06;97851.44;;;21.21;51.63
53900;BME280;40509;32.858;-116.858;2023-05-24T12:49:34;97852.56;;;21.18;51.60
53900;BME280;40509;32.858;-116.858;2023-05-24T12:52:01;97850.63;;;21.20;51.43
53900;BME280;40509;32.858;-116.858;2023-05-24T12:54:29;97852.84;;;21.15;51.49
53900;BME280;40509;32.858;-116.858;2023-05-24T12:56:56;97856.03;;;21.19;51.47